createdAt,value
2018-12-21T00:01:46.080Z,100811.55
2018-12-21T00:04:14.961Z,100810.02
2018-12-21T00:06:43.841Z,100815.55
2018-12-21T00:09:12.733Z,100802.38
2018-12-21T00:11:41.652Z,100795.29
2018-12-21T00:14:10.612Z,100795.54
2018-12-21T00:16:39.512Z,100795.29
2018-12-21T00:19:08.406Z,100794.95
2018-12-21T00:21:37.384Z,100793.64
2018-12-21T00:24:06.282Z,100782.97
2018-12-21T00:26:35.169Z,100778.54
2018-12-21T00:29:04.052Z,100777.95
2018-12-21T00:31:38.288Z,100774.95
2018-12-21T00:34:12.741Z,100770.64
2018-12-21T00:36:46.972Z,100776.75
2018-12-21T00:39:21.156Z,100772.20
2018-12-21T00:41:49.456Z,100767.89
2018-12-21T00:44:28.531Z,100763.84
2018-12-21T00:47:01.528Z,100759.41
2018-12-21T00:49:30.422Z,100755.83
2018-12-21T00:51:59.304Z,100751.51
2018-12-21T00:54:28.211Z,100746.47
2018-12-21T00:56:57.078Z,100743.61
2018-12-21T00:59:25.976Z,100737.50
2018-12-21T01:01:54.976Z,100729.61
2018-12-21T01:04:23.861Z,100733.66
2018-12-21T01:06:52.760Z,100734.25
2018-12-21T01:09:21.741Z,100734.62
2018-12-21T01:11:50.609Z,100735.34
2018-12-21T01:14:19.623Z,100739.55
2018-12-21T01:16:48.531Z,100737.75
2018-12-21T01:19:17.379Z,100732.97
2018-12-21T01:21:47.018Z,100725.66
2018-12-21T01:24:15.892Z,100728.77
2018-12-21T01:26:44.997Z,100726.50
2018-12-21T01:29:13.876Z,100721.95
2018-12-21T01:31:42.712Z,100716.33
2018-12-21T01:34:11.661Z,100715.37
2018-12-21T01:36:40.488Z,100710.22
2018-12-21T01:39:09.411Z,100701.12
2018-12-21T01:41:38.232Z,100702.80
2018-12-21T01:44:07.141Z,100705.43
2018-12-21T01:46:36.033Z,100705.91
2018-12-21T01:49:04.925Z,100707.11
2018-12-21T01:51:33.810Z,100705.55
2018-12-21T01:54:02.677Z,100696.33
2018-12-21T01:56:31.498Z,100685.43
2018-12-21T01:59:00.487Z,100681.27
2018-12-21T02:01:29.309Z,100672.16
2018-12-21T02:03:58.165Z,100668.09
2018-12-21T02:06:27.041Z,100663.89
2018-12-21T02:08:55.941Z,100663.89
2018-12-21T02:11:24.837Z,100648.57
2018-12-21T02:13:53.815Z,100645.45
2018-12-21T02:16:22.692Z,100646.78
2018-12-21T02:18:51.587Z,100641.52
2018-12-21T02:21:20.400Z,100633.86
2018-12-21T02:23:49.252Z,100633.38
2018-12-21T02:26:18.185Z,100632.42
2018-12-21T02:28:47.076Z,100622.48
2018-12-21T02:31:15.992Z,100617.58
2018-12-21T02:33:44.932Z,100607.77
2018-12-21T02:36:13.996Z,100606.69
2018-12-21T02:38:43.082Z,100600.11
2018-12-21T02:41:12.013Z,100590.89
2018-12-21T02:43:40.830Z,100587.78
2018-12-21T02:46:09.645Z,100588.62
2018-12-21T02:48:38.492Z,100577.72
2018-12-21T02:51:08.391Z,100571.39
2018-12-21T02:53:37.192Z,100566.23
2018-12-21T02:56:06.181Z,100559.30
2018-12-21T02:58:35.096Z,100555.59
2018-12-21T03:01:03.906Z,100545.30
2018-12-21T03:03:32.844Z,100543.87
2018-12-21T03:06:01.748Z,100540.64
2018-12-21T03:08:30.634Z,100541.48
2018-12-21T03:10:59.504Z,100535.01
2018-12-21T03:13:28.412Z,100533.22
2018-12-21T03:15:57.291Z,100530.58
2018-12-21T03:18:26.608Z,100526.84
2018-12-21T03:20:55.492Z,100519.54
2018-12-21T03:23:24.396Z,100519.54
2018-12-21T03:25:53.264Z,100506.85
2018-12-21T03:28:25.185Z,100497.75
2018-12-21T03:30:54.018Z,100491.17
2018-12-21T03:33:23.022Z,100495.36
2018-12-21T03:35:51.833Z,100483.88
2018-12-21T03:38:21.058Z,100480.52
2018-12-21T03:40:50.509Z,100474.65
2018-12-21T03:43:19.417Z,100474.65
2018-12-21T03:45:48.230Z,100471.42
2018-12-21T03:48:17.141Z,100462.41
2018-12-21T03:50:45.956Z,100453.70
2018-12-21T03:53:14.833Z,100450.70
2018-12-21T03:55:43.737Z,100440.17
2018-12-21T03:58:12.642Z,100437.30
2018-12-21T04:00:41.520Z,100433.11
2018-12-21T04:03:10.400Z,100423.73
2018-12-21T04:05:40.221Z,100414.52
2018-12-21T04:08:09.081Z,100409.25
2018-12-21T04:10:38.012Z,100396.11
2018-12-21T04:13:06.892Z,100387.84
2018-12-21T04:15:35.901Z,100382.58
2018-12-21T04:18:04.774Z,100384.14
2018-12-21T04:20:33.669Z,100370.38
2018-12-21T04:23:02.557Z,100360.31
2018-12-21T04:25:31.486Z,100349.66
2018-12-21T04:28:00.433Z,100339.12
2018-12-21T04:30:29.337Z,100336.73
2018-12-21T04:32:58.160Z,100330.39
2018-12-21T04:35:27.125Z,100325.73
2018-12-21T04:37:55.969Z,100323.09
2018-12-21T04:40:24.892Z,100315.55
2018-12-21T04:42:53.697Z,100305.50
2018-12-21T04:45:22.678Z,100311.48
2018-12-21T04:47:51.559Z,100305.63
2018-12-21T04:50:20.453Z,100309.33
2018-12-21T04:52:49.294Z,100312.92
2018-12-21T04:55:18.237Z,100304.20
2018-12-21T04:57:47.176Z,100292.83
2018-12-21T05:00:16.121Z,100299.20
2018-12-21T05:02:45.250Z,100294.67
2018-12-21T05:05:14.333Z,100290.84
2018-12-21T05:07:43.201Z,100295.64
2018-12-21T05:10:12.092Z,100289.78
2018-12-21T05:12:41.110Z,100283.20
2018-12-21T05:15:10.200Z,100268.25
2018-12-21T05:17:40.216Z,100259.03
2018-12-21T05:20:09.282Z,100253.44
2018-12-21T05:22:38.225Z,100256.55
2018-12-21T05:25:07.332Z,100248.17
2018-12-21T05:27:36.156Z,100230.35
2018-12-21T05:30:05.786Z,100219.23
2018-12-21T05:32:35.269Z,100213.14
2018-12-21T05:35:04.446Z,100204.63
2018-12-21T05:37:34.377Z,100205.48
2018-12-21T05:40:03.392Z,100199.51
2018-12-21T05:42:32.244Z,100179.52
2018-12-21T05:45:01.284Z,100190.16
2018-12-21T05:47:31.308Z,100160.84
2018-12-21T05:50:00.555Z,100157.38
2018-12-21T05:52:29.512Z,100156.77
2018-12-21T05:54:58.361Z,100143.13
2018-12-21T05:57:27.208Z,100135.71
2018-12-21T05:59:56.881Z,100118.59
2018-12-21T06:02:25.777Z,100110.48
2018-12-21T06:04:54.632Z,100107.13
2018-12-21T06:07:24.813Z,100113.94
2018-12-21T06:09:53.824Z,100110.95
2018-12-21T06:12:22.644Z,100100.20
2018-12-21T06:14:51.505Z,100090.63
2018-12-21T06:17:20.332Z,100092.43
2018-12-21T06:19:49.237Z,100086.08
2018-12-21T06:22:18.137Z,100084.44
2018-12-21T06:24:46.974Z,100077.37
2018-12-21T06:27:16.790Z,100071.02
2018-12-21T06:29:45.608Z,100074.13
2018-12-21T06:32:14.550Z,100068.52
2018-12-21T06:34:43.438Z,100045.89
2018-12-21T06:37:13.317Z,100044.09
2018-12-21T06:39:42.176Z,100036.80
2018-12-21T06:42:11.069Z,100029.52
2018-12-21T06:44:40.476Z,100036.26
2018-12-21T06:47:09.632Z,100031.31
2018-12-21T06:49:38.570Z,100025.31
2018-12-21T06:52:07.449Z,100009.87
2018-12-21T06:54:36.306Z,100005.80
2018-12-21T06:57:05.593Z,100006.72
2018-12-21T06:59:34.545Z,99993.70
2018-12-21T07:02:03.478Z,99995.01
2018-12-21T07:04:32.335Z,99994.53
2018-12-21T07:07:01.144Z,99989.84
2018-12-21T07:09:30.008Z,99989.13
2018-12-21T07:11:59.589Z,99985.89
2018-12-21T07:14:28.609Z,99977.03
2018-12-21T07:16:57.498Z,99974.39
2018-12-21T07:19:26.800Z,99971.34
2018-12-21T07:21:55.695Z,99969.94
2018-12-21T07:24:24.700Z,99963.22
2018-12-21T07:26:53.578Z,99965.02
2018-12-21T07:29:22.548Z,99961.91
2018-12-21T07:31:51.506Z,99961.55
2018-12-21T07:34:21.472Z,99956.98
2018-12-21T07:36:50.380Z,99954.36
2018-12-21T07:39:19.243Z,99947.77
2018-12-21T07:41:48.237Z,99942.59
2018-12-21T07:44:17.686Z,99947.59
2018-12-21T07:46:46.653Z,99936.10
2018-12-21T07:49:16.600Z,99925.92
2018-12-21T07:51:45.535Z,99918.38
2018-12-21T07:54:14.503Z,99913.23
2018-12-21T07:56:43.313Z,99905.55
2018-12-21T07:59:12.193Z,99901.61
2018-12-21T08:01:41.612Z,99889.76
2018-12-21T08:04:10.479Z,99872.43
2018-12-21T08:06:39.357Z,99871.33
2018-12-21T08:09:08.496Z,99865.89
2018-12-21T08:11:38.053Z,99859.17
2018-12-21T08:14:07.027Z,99843.38
2018-12-21T08:16:36.064Z,99829.25
2018-12-21T08:19:04.876Z,99820.33
2018-12-21T08:21:34.170Z,99831.19
2018-12-21T08:24:03.057Z,99823.02
2018-12-21T08:26:31.945Z,99811.86
2018-12-21T08:29:00.811Z,99790.17
2018-12-21T08:31:29.686Z,99764.53
2018-12-21T08:33:58.596Z,99754.70
2018-12-21T08:36:27.447Z,99769.53
2018-12-21T08:38:56.330Z,99769.80
2018-12-21T08:41:25.188Z,99747.42
2018-12-21T08:43:54.180Z,99772.78
2018-12-21T08:46:23.064Z,99770.50
2018-12-21T08:48:52.914Z,99761.62
2018-12-21T08:51:21.880Z,99751.27
2018-12-21T08:53:52.662Z,99749.95
2018-12-21T08:56:21.748Z,99743.72
2018-12-21T08:58:50.589Z,99741.42
2018-12-21T09:01:19.507Z,99732.70
2018-12-21T09:03:48.345Z,99724.17
2018-12-21T09:06:18.573Z,99714.33
2018-12-21T09:08:47.753Z,99713.36
2018-12-21T09:11:16.581Z,99707.40
2018-12-21T09:13:45.489Z,99704.42
2018-12-21T09:16:17.739Z,99701.64
2018-12-21T09:18:46.625Z,99699.77
2018-12-21T09:21:15.466Z,99695.20
2018-12-21T09:23:44.288Z,99693.60
2018-12-21T09:26:13.189Z,99692.00
2018-12-21T09:28:42.257Z,99692.70
2018-12-21T09:31:11.891Z,99690.41
2018-12-21T09:33:40.705Z,99693.73
2018-12-21T09:36:09.683Z,99683.50
2018-12-21T09:38:40.306Z,99680.39
2018-12-21T09:41:09.324Z,99690.09
2018-12-21T09:43:38.960Z,99680.22
2018-12-21T09:46:09.129Z,99675.46
2018-12-21T09:48:38.128Z,99677.61
2018-12-21T09:51:07.214Z,99665.62
2018-12-21T09:53:36.200Z,99661.32
2018-12-21T09:56:05.058Z,99658.55
2018-12-21T09:58:35.268Z,99651.33
2018-12-21T10:01:04.256Z,99648.41
2018-12-21T10:03:33.212Z,99641.54
2018-12-21T10:06:02.027Z,99646.98
2018-12-21T10:08:30.979Z,99639.42
2018-12-21T10:14:03.864Z,99640.45
2018-12-21T10:16:33.078Z,99623.17
2018-12-21T10:19:02.207Z,99636.90
2018-12-21T10:21:31.249Z,99634.84
2018-12-21T10:24:01.459Z,99635.33
2018-12-21T10:26:30.889Z,99626.30
2018-12-21T10:28:59.862Z,99618.39
2018-12-21T10:31:28.920Z,99612.95
2018-12-21T10:33:58.724Z,99628.95
2018-12-21T10:36:31.913Z,99625.69
2018-12-21T10:39:03.853Z,99582.60
2018-12-21T10:41:34.157Z,99608.61
2018-12-21T10:44:03.098Z,99611.93
2018-12-21T10:46:31.914Z,99605.69
2018-12-21T10:49:01.412Z,99598.77
2018-12-21T10:51:30.653Z,99612.69
2018-12-21T10:53:59.467Z,99607.66
2018-12-21T10:56:28.813Z,99598.64
2018-12-21T10:58:57.755Z,99609.00
2018-12-21T11:01:27.345Z,99608.17
2018-12-21T11:03:56.981Z,99596.77
2018-12-21T11:06:26.311Z,99595.72
2018-12-21T11:11:57.360Z,99595.86
2018-12-21T11:14:26.427Z,99598.61
2018-12-21T11:16:56.164Z,99592.20
2018-12-21T11:19:25.025Z,99601.64
2018-12-21T11:21:53.976Z,99597.40
2018-12-21T11:24:23.017Z,99608.66
2018-12-21T11:26:51.880Z,99594.81
2018-12-21T11:29:20.895Z,99636.50
2018-12-21T11:31:49.887Z,99635.52
2018-12-21T11:34:18.758Z,99602.11
2018-12-21T11:36:47.762Z,99610.38
2018-12-21T11:39:16.669Z,99593.86
2018-12-21T11:41:46.544Z,99591.22
2018-12-21T11:44:15.407Z,99611.73
2018-12-21T11:46:44.329Z,99598.48
2018-12-21T11:49:13.245Z,99635.22
2018-12-21T11:51:42.065Z,99615.20
2018-12-21T11:54:11.005Z,99597.52
2018-12-21T11:56:39.900Z,99631.91
2018-12-21T11:59:08.974Z,99615.53
2018-12-21T12:01:37.951Z,99618.84
2018-12-21T12:04:07.054Z,99638.55
2018-12-21T12:06:35.882Z,99637.88
2018-12-21T12:09:07.404Z,99611.41
2018-12-21T12:11:37.500Z,99641.55
2018-12-21T12:14:06.554Z,99623.67
2018-12-21T12:16:36.536Z,99626.33
2018-12-21T12:19:05.519Z,99623.67
2018-12-21T12:21:34.513Z,99625.16
2018-12-21T12:24:03.488Z,99635.92
2018-12-21T12:26:32.363Z,99631.12
2018-12-21T12:29:01.660Z,99627.81
2018-12-21T12:31:31.472Z,99628.97
2018-12-21T12:34:06.017Z,99629.30
2018-12-21T12:36:39.217Z,99623.34
2018-12-21T12:39:08.465Z,99632.43
2018-12-21T12:41:37.568Z,99639.55
2018-12-21T12:44:07.302Z,99624.82
2018-12-21T12:46:36.508Z,99640.39
2018-12-21T12:49:05.535Z,99627.28
2018-12-21T12:51:34.714Z,99630.76
2018-12-21T12:54:04.653Z,99636.88
2018-12-21T12:56:34.154Z,99625.95
2018-12-21T12:59:04.710Z,99629.44
2018-12-21T13:01:34.145Z,99636.55
2018-12-21T13:04:03.688Z,99636.22
2018-12-21T13:06:33.228Z,99641.36
2018-12-21T13:09:02.204Z,99641.36
2018-12-21T13:11:32.637Z,99649.97
2018-12-21T13:14:01.522Z,99648.45
2018-12-21T13:16:30.411Z,99658.72
2018-12-21T13:18:59.251Z,99655.08
2018-12-21T13:21:28.233Z,99647.78
2018-12-21T13:23:57.180Z,99660.70
2018-12-21T13:26:26.063Z,99667.16
2018-12-21T13:28:54.973Z,99649.77
2018-12-21T13:31:24.497Z,99666.80
2018-12-21T13:33:53.477Z,99654.88
2018-12-21T13:36:22.353Z,99652.76
2018-12-21T13:38:51.348Z,99672.63
2018-12-21T13:41:20.226Z,99677.91
2018-12-21T13:43:49.101Z,99667.13
2018-12-21T13:46:18.137Z,99664.16
2018-12-21T13:48:47.129Z,99662.66
2018-12-21T13:51:15.981Z,99674.42
2018-12-21T13:53:44.917Z,99699.77
2018-12-21T13:56:13.828Z,99716.34
2018-12-21T13:58:42.697Z,99714.66
2018-12-21T14:01:12.312Z,99684.53
2018-12-21T14:03:41.273Z,99683.20
2018-12-21T14:06:10.311Z,99688.84
2018-12-21T14:08:39.148Z,99701.95
2018-12-21T14:11:08.658Z,99701.62
2018-12-21T14:13:37.642Z,99712.70
2018-12-21T14:16:06.687Z,99711.91
2018-12-21T14:18:35.536Z,99699.98
2018-12-21T14:21:05.228Z,99727.13
2018-12-21T14:23:34.761Z,99729.13
2018-12-21T14:26:03.801Z,99728.62
2018-12-21T14:28:32.781Z,99721.01
2018-12-21T14:31:02.797Z,99735.23
2018-12-21T14:33:31.758Z,99745.50
2018-12-21T14:36:00.581Z,99747.16
2018-12-21T14:38:29.400Z,99741.86
2018-12-21T14:40:58.358Z,99748.52
2018-12-21T14:43:27.261Z,99755.28
2018-12-21T14:45:56.353Z,99732.60
2018-12-21T14:48:25.454Z,99760.73
2018-12-21T14:50:54.919Z,99762.05
2018-12-21T14:53:23.900Z,99753.77
2018-12-21T14:55:52.764Z,99788.37
2018-12-21T14:58:22.185Z,99795.34
2018-12-21T15:00:50.996Z,99792.86
2018-12-21T15:03:19.969Z,99807.75
2018-12-21T15:05:48.781Z,99794.83
2018-12-21T15:08:17.736Z,99807.41
2018-12-21T15:10:46.557Z,99803.77
2018-12-21T15:13:15.407Z,99829.93
2018-12-21T15:15:44.310Z,99839.98
2018-12-21T15:18:13.281Z,99819.63
2018-12-21T15:20:42.180Z,99835.34
2018-12-21T15:23:10.982Z,99825.06
2018-12-21T15:25:46.013Z,99853.34
2018-12-21T15:28:10.797Z,99855.16
2018-12-21T15:30:39.675Z,99877.14
2018-12-21T15:33:08.483Z,99870.03
2018-12-21T15:35:37.372Z,99907.91
2018-12-21T15:38:06.203Z,99905.26
2018-12-21T15:40:35.150Z,99862.22
2018-12-21T15:43:04.197Z,99879.13
2018-12-21T15:45:33.041Z,99880.61
2018-12-21T15:48:02.029Z,99877.47
2018-12-21T15:50:30.913Z,99965.97
2018-12-21T15:52:59.810Z,99948.95
2018-12-21T15:55:29.030Z,99907.73
2018-12-21T15:57:57.888Z,99909.52
2018-12-21T16:00:27.006Z,99938.75
2018-12-21T16:02:56.895Z,99924.20
2018-12-21T16:05:25.929Z,99949.80
2018-12-21T16:07:54.805Z,99959.02
2018-12-21T16:10:23.672Z,99989.80
2018-12-21T16:12:52.574Z,99982.16
2018-12-21T16:15:21.465Z,99962.98
2018-12-21T16:17:50.344Z,99956.52
2018-12-21T16:20:19.227Z,99959.62
2018-12-21T16:22:48.129Z,99984.61
2018-12-21T16:25:17.087Z,99992.70
2018-12-21T16:27:46.021Z,99987.89
2018-12-21T16:30:15.009Z,99989.37
2018-12-21T16:32:43.921Z,99988.98
2018-12-21T16:35:12.858Z,99990.35
2018-12-21T16:37:41.681Z,99986.88
2018-12-21T16:40:11.594Z,100035.97
2018-12-21T16:42:40.481Z,99998.92
2018-12-21T16:45:11.105Z,99978.41
2018-12-21T16:47:39.921Z,99993.28
2018-12-21T16:50:12.753Z,99988.63
2018-12-21T16:52:41.613Z,100026.66
2018-12-21T16:55:11.662Z,99985.16
2018-12-21T16:57:40.535Z,99988.78
2018-12-21T17:00:13.668Z,99991.92
2018-12-21T17:02:42.596Z,100037.53
2018-12-21T17:05:11.584Z,100025.14
2018-12-21T17:07:40.496Z,100040.03
2018-12-21T17:10:18.901Z,100019.20
2018-12-21T17:12:47.948Z,100062.17
2018-12-21T17:15:16.945Z,100026.45
2018-12-21T17:17:45.877Z,100021.95
2018-12-21T17:20:14.757Z,100021.61
2018-12-21T17:22:43.596Z,100034.84
2018-12-21T17:25:14.039Z,100039.49
2018-12-21T17:27:43.529Z,100104.64
2018-12-21T17:30:13.396Z,100051.39
2018-12-21T17:32:42.453Z,100060.11
2018-12-21T17:35:11.328Z,100073.69
2018-12-21T17:37:40.615Z,100048.70
2018-12-21T17:40:11.451Z,100065.89
2018-12-21T17:42:40.206Z,100075.82
2018-12-21T17:45:11.030Z,100066.22
2018-12-21T17:47:39.859Z,100079.59
2018-12-21T17:50:10.196Z,100139.59
2018-12-21T17:52:39.076Z,100094.28
2018-12-21T17:55:09.029Z,100096.24
2018-12-21T17:57:38.931Z,100094.23
2018-12-21T18:00:16.526Z,100117.00
2018-12-21T18:02:47.755Z,100112.84
2018-12-21T18:05:16.610Z,100114.83
2018-12-21T18:07:45.433Z,100133.02
2018-12-21T18:10:14.987Z,100107.41
2018-12-21T18:12:43.953Z,100124.25
2018-12-21T18:15:12.884Z,100123.41
2018-12-21T18:17:41.710Z,100141.49
2018-12-21T18:20:12.268Z,100132.37
2018-12-21T18:22:41.760Z,100132.87
2018-12-21T18:25:15.492Z,100143.59
2018-12-21T18:27:46.830Z,100163.56
2018-12-21T18:30:24.796Z,100156.30
2018-12-21T18:32:53.726Z,100149.00
2018-12-21T18:35:22.696Z,100143.36
2018-12-21T18:37:55.969Z,100156.59
2018-12-21T18:40:24.830Z,100158.89
2018-12-21T18:42:53.670Z,100165.20
2018-12-21T18:45:22.553Z,100172.66
2018-12-21T18:47:51.456Z,100164.52
2018-12-21T18:50:21.101Z,100178.02
2018-12-21T18:52:49.944Z,100168.71
2018-12-21T18:55:18.787Z,100177.48
2018-12-21T18:57:47.737Z,100185.89
2018-12-21T19:00:17.376Z,100185.55
2018-12-21T19:02:46.276Z,100194.59
2018-12-21T19:05:15.097Z,100192.48
2018-12-21T19:07:43.977Z,100212.97
2018-12-21T19:10:13.857Z,100205.03
2018-12-21T19:12:42.753Z,100216.93
2018-12-21T19:15:12.097Z,100211.02
2018-12-21T19:17:41.124Z,100230.50
2018-12-21T19:20:11.627Z,100231.30
2018-12-21T19:22:40.743Z,100233.22
2018-12-21T19:25:10.931Z,100214.86
2018-12-21T19:27:39.850Z,100252.30
2018-12-21T19:30:11.339Z,100222.95
2018-12-21T19:32:42.353Z,100217.32
2018-12-21T19:35:12.461Z,100241.72
2018-12-21T19:37:41.531Z,100237.44
2018-12-21T19:40:12.644Z,100240.97
2018-12-21T19:42:42.713Z,100252.23
2018-12-21T19:45:13.427Z,100242.50
2018-12-21T19:47:42.401Z,100260.16
2018-12-21T19:50:11.608Z,100249.94
2018-12-21T19:52:40.688Z,100255.22
2018-12-21T19:55:18.426Z,100268.08
2018-12-21T19:57:47.245Z,100258.97
2018-12-21T20:00:16.711Z,100270.59
2018-12-21T20:02:46.996Z,100262.80
2018-12-21T20:05:16.010Z,100254.04
2018-12-21T20:07:44.821Z,100258.00
2018-12-21T20:10:13.722Z,100261.13
2018-12-21T20:12:42.608Z,100270.59
2018-12-21T20:15:11.614Z,100279.34
2018-12-21T20:17:40.439Z,100274.89
2018-12-21T20:20:10.500Z,100281.33
2018-12-21T20:22:39.328Z,100274.73
2018-12-21T20:25:10.512Z,100279.69
2018-12-21T20:27:40.344Z,100271.77
2018-12-21T20:30:12.353Z,100275.52
2018-12-21T20:32:41.261Z,100290.26
2018-12-21T20:35:10.260Z,100289.25
2018-12-21T20:37:39.268Z,100299.81
2018-12-21T20:40:10.021Z,100286.61
2018-12-21T20:42:39.040Z,100279.69
2018-12-21T20:45:09.325Z,100289.47
2018-12-21T20:47:38.254Z,100299.55
2018-12-21T20:50:10.525Z,100301.92
2018-12-21T20:52:39.404Z,100298.79
2018-12-21T20:55:08.894Z,100305.61
2018-12-21T20:57:38.309Z,100302.62
2018-12-21T21:00:11.265Z,100309.44
2018-12-21T21:02:40.149Z,100326.12
2018-12-21T21:05:09.029Z,100319.73
2018-12-21T21:07:37.871Z,100309.16
2018-12-21T21:10:09.929Z,100319.25
2018-12-21T21:12:38.813Z,100346.98
2018-12-21T21:15:09.337Z,100317.44
2018-12-21T21:17:38.320Z,100319.56
2018-12-21T21:20:10.419Z,100321.41
2018-12-21T21:22:39.449Z,100321.53
2018-12-21T21:25:09.205Z,100330.78
2018-12-21T21:27:38.128Z,100332.94
2018-12-21T21:30:12.086Z,100325.02
2018-12-21T21:32:41.195Z,100325.50
2018-12-21T21:35:10.390Z,100335.09
2018-12-21T21:37:39.345Z,100339.05
2018-12-21T21:40:12.097Z,100339.67
2018-12-21T21:42:40.917Z,100338.98
2018-12-21T21:45:09.872Z,100350.38
2018-12-21T21:47:39.680Z,100369.70
2018-12-21T21:50:09.393Z,100353.50
2018-12-21T21:52:38.332Z,100353.50
2018-12-21T21:55:07.810Z,100354.12
2018-12-21T21:57:39.606Z,100366.85
2018-12-21T22:00:11.746Z,100351.14
2018-12-21T22:02:40.812Z,100373.94
2018-12-21T22:05:09.789Z,100362.41
2018-12-21T22:07:38.676Z,100362.67
2018-12-21T22:10:09.733Z,100356.91
2018-12-21T22:12:38.673Z,100380.45
2018-12-21T22:15:09.425Z,100368.70
2018-12-21T22:17:38.337Z,100370.16
2018-12-21T22:20:09.765Z,100365.05
2018-12-21T22:22:38.676Z,100380.05
2018-12-21T22:25:07.711Z,100377.55
2018-12-21T22:27:36.688Z,100367.47
2018-12-21T22:30:07.880Z,100371.78
2018-12-21T22:32:36.977Z,100377.33
2018-12-21T22:35:06.104Z,100373.37
2018-12-21T22:37:36.068Z,100394.14
2018-12-21T22:40:05.592Z,100385.52
2018-12-21T22:42:34.426Z,100379.88
2018-12-21T22:45:03.602Z,100379.53
2018-12-21T22:47:32.593Z,100403.91
2018-12-21T22:50:01.506Z,100390.71
2018-12-21T22:52:30.460Z,100399.95
2018-12-21T22:54:59.372Z,100396.96
2018-12-21T22:57:28.225Z,100397.31
2018-12-21T22:59:57.144Z,100395.64
2018-12-21T23:02:26.091Z,100400.09
2018-12-21T23:04:55.080Z,100399.25
2018-12-21T23:07:23.904Z,100398.28
2018-12-21T23:09:52.905Z,100398.63
2018-12-21T23:12:21.805Z,100394.32
2018-12-21T23:14:50.636Z,100398.28
2018-12-21T23:17:19.572Z,100396.48
2018-12-21T23:19:48.492Z,100398.63
2018-12-21T23:22:17.369Z,100387.37
2018-12-21T23:24:46.252Z,100391.41
2018-12-21T23:27:15.141Z,100390.09
2018-12-21T23:29:44.159Z,100395.38
2018-12-21T23:32:13.214Z,100409.06
2018-12-21T23:34:43.024Z,100391.41
2018-12-21T23:37:11.928Z,100394.77
2018-12-21T23:39:40.816Z,100388.16
2018-12-21T23:42:09.809Z,100402.69
2018-12-21T23:44:38.704Z,100389.48
2018-12-21T23:47:07.645Z,100386.13
2018-12-21T23:49:36.617Z,100383.14
2018-12-21T23:52:05.585Z,100375.57
2018-12-21T23:54:34.481Z,100394.77
2018-12-21T23:57:03.597Z,100373.64
2018-12-21T23:59:32.560Z,100374.25
